sensor_id;sensor_type;location;lat;lon;timestamp;P1;durP1;ratioP1;P2;durP2;ratioP2
49139;SDS011;34959;49.310;8.646;2023-04-16T00:01:47;1.33;;;0.45;;
49139;SDS011;34959;49.310;8.646;2023-04-16T00:04:12;1.63;;;0.30;;
49139;SDS011;34959;49.310;8.646;2023-04-16T00:06:38;4.95;;;0.60;;
49139;SDS011;34959;49.310;8.646;2023-04-16T00:09:03;1.27;;;0.68;;
49139;SDS011;34959;49.310;8.646;2023-04-16T00:11:29;0.82;;;0.50;;
49139;SDS011;34959;49.310;8.646;2023-04-16T00:13:54;2.75;;;0.68;;
49139;SDS011;34959;49.310;8.646;2023-04-16T00:16:20;0.90;;;0.30;;
49139;SDS011;34959;49.310;8.646;2023-04-16T00:18:45;1.50;;;0.30;;
49139;SDS011;34959;49.310;8.646;2023-04-16T00:21:11;3.40;;;0.35;;
49139;SDS011;34959;49.310;8.646;2023-04-16T00:23:36;3.60;;;0.60;;
49139;SDS011;34959;49.310;8.646;2023-04-16T00:26:02;1.60;;;0.50;;
49139;SDS011;34959;49.310;8.646;2023-04-16T00:28:27;3.92;;;0.55;;
49139;SDS011;34959;49.310;8.646;2023-04-16T00:30:53;1.38;;;0.40;;
49139;SDS011;34959;49.310;8.646;2023-04-16T00:33:19;1.10;;;0.50;;
49139;SDS011;34959;49.310;8.646;2023-04-16T00:35:44;0.70;;;0.50;;
49139;SDS011;34959;49.310;8.646;2023-04-16T00:38:11;2.88;;;0.50;;
49139;SDS011;34959;49.310;8.646;2023-04-16T00:40:36;0.90;;;0.40;;
49139;SDS011;34959;49.310;8.646;2023-04-16T00:43:02;1.02;;;0.40;;
49139;SDS011;34959;49.310;8.646;2023-04-16T00:45:27;2.15;;;0.50;;
49139;SDS011;34959;49.310;8.646;2023-04-16T00:47:53;3.58;;;0.65;;
49139;SDS011;34959;49.310;8.646;2023-04-16T00:50:18;1.58;;;0.40;;
49139;SDS011;34959;49.310;8.646;2023-04-16T00:52:45;3.22;;;0.40;;
49139;SDS011;34959;49.310;8.646;2023-04-16T00:55:11;0.88;;;0.52;;
49139;SDS011;34959;49.310;8.646;2023-04-16T00:57:37;1.00;;;0.50;;
49139;SDS011;34959;49.310;8.646;2023-04-16T01:00:04;1.75;;;0.40;;
49139;SDS011;34959;49.310;8.646;2023-04-16T01:02:30;1.42;;;0.57;;
49139;SDS011;34959;49.310;8.646;2023-04-16T01:04:55;0.95;;;0.30;;
49139;SDS011;34959;49.310;8.646;2023-04-16T01:07:20;1.98;;;0.52;;
49139;SDS011;34959;49.310;8.646;2023-04-16T01:09:46;0.90;;;0.50;;
49139;SDS011;34959;49.310;8.646;2023-04-16T01:12:11;1.35;;;0.30;;
49139;SDS011;34959;49.310;8.646;2023-04-16T01:14:37;1.65;;;0.50;;
49139;SDS011;34959;49.310;8.646;2023-04-16T01:17:02;1.13;;;0.50;;
49139;SDS011;34959;49.310;8.646;2023-04-16T01:19:28;1.13;;;0.40;;
49139;SDS011;34959;49.310;8.646;2023-04-16T01:21:55;2.65;;;0.60;;
49139;SDS011;34959;49.310;8.646;2023-04-16T01:24:21;0.82;;;0.40;;
49139;SDS011;34959;49.310;8.646;2023-04-16T01:26:47;1.95;;;0.50;;
49139;SDS011;34959;49.310;8.646;2023-04-16T01:29:12;0.40;;;0.20;;
49139;SDS011;34959;49.310;8.646;2023-04-16T01:31:38;0.65;;;0.45;;
49139;SDS011;34959;49.310;8.646;2023-04-16T01:34:03;1.92;;;0.50;;
49139;SDS011;34959;49.310;8.646;2023-04-16T01:36:28;1.83;;;0.50;;
49139;SDS011;34959;49.310;8.646;2023-04-16T01:38:54;1.77;;;0.55;;
49139;SDS011;34959;49.310;8.646;2023-04-16T01:41:19;3.38;;;0.60;;
49139;SDS011;34959;49.310;8.646;2023-04-16T01:43:45;1.60;;;0.50;;
49139;SDS011;34959;49.310;8.646;2023-04-16T01:46:12;1.48;;;0.52;;
49139;SDS011;34959;49.310;8.646;2023-04-16T01:48:45;0.50;;;0.35;;
49139;SDS011;34959;49.310;8.646;2023-04-16T01:51:11;1.00;;;0.50;;
49139;SDS011;34959;49.310;8.646;2023-04-16T01:53:36;1.63;;;0.52;;
49139;SDS011;34959;49.310;8.646;2023-04-16T01:56:02;1.15;;;0.50;;
49139;SDS011;34959;49.310;8.646;2023-04-16T01:58:28;1.13;;;0.70;;
49139;SDS011;34959;49.310;8.646;2023-04-16T02:00:54;1.88;;;0.57;;
49139;SDS011;34959;49.310;8.646;2023-04-16T02:03:20;0.75;;;0.50;;
49139;SDS011;34959;49.310;8.646;2023-04-16T02:05:48;1.30;;;0.60;;
49139;SDS011;34959;49.310;8.646;2023-04-16T02:08:13;0.95;;;0.52;;
49139;SDS011;34959;49.310;8.646;2023-04-16T02:10:38;1.98;;;0.50;;
49139;SDS011;34959;49.310;8.646;2023-04-16T02:13:04;1.65;;;0.52;;
49139;SDS011;34959;49.310;8.646;2023-04-16T02:15:29;0.70;;;0.50;;
49139;SDS011;34959;49.310;8.646;2023-04-16T02:17:55;0.82;;;0.52;;
49139;SDS011;34959;49.310;8.646;2023-04-16T02:20:21;1.00;;;0.60;;
49139;SDS011;34959;49.310;8.646;2023-04-16T02:22:46;1.17;;;0.40;;
49139;SDS011;34959;49.310;8.646;2023-04-16T02:25:12;0.68;;;0.40;;
49139;SDS011;34959;49.310;8.646;2023-04-16T02:27:38;0.80;;;0.40;;
49139;SDS011;34959;49.310;8.646;2023-04-16T02:30:04;1.17;;;0.50;;
49139;SDS011;34959;49.310;8.646;2023-04-16T02:32:29;0.82;;;0.73;;
49139;SDS011;34959;49.310;8.646;2023-04-16T02:34:55;0.77;;;0.47;;
49139;SDS011;34959;49.310;8.646;2023-04-16T02:37:21;1.48;;;0.60;;
49139;SDS011;34959;49.310;8.646;2023-04-16T02:39:47;1.75;;;0.60;;
49139;SDS011;34959;49.310;8.646;2023-04-16T02:42:14;1.42;;;0.47;;
49139;SDS011;34959;49.310;8.646;2023-04-16T02:44:40;0.50;;;0.40;;
49139;SDS011;34959;49.310;8.646;2023-04-16T02:47:05;1.40;;;0.60;;
49139;SDS011;34959;49.310;8.646;2023-04-16T02:49:31;1.02;;;0.60;;
49139;SDS011;34959;49.310;8.646;2023-04-16T02:51:56;1.80;;;0.50;;
49139;SDS011;34959;49.310;8.646;2023-04-16T02:54:22;1.17;;;0.60;;
49139;SDS011;34959;49.310;8.646;2023-04-16T02:56:47;3.33;;;0.65;;
49139;SDS011;34959;49.310;8.646;2023-04-16T02:59:12;1.05;;;0.43;;
49139;SDS011;34959;49.310;8.646;2023-04-16T03:01:38;2.42;;;0.60;;
49139;SDS011;34959;49.310;8.646;2023-04-16T03:04:03;1.10;;;0.40;;
49139;SDS011;34959;49.310;8.646;2023-04-16T03:06:29;1.00;;;0.43;;
49139;SDS011;34959;49.310;8.646;2023-04-16T03:08:55;1.35;;;0.50;;
49139;SDS011;34959;49.310;8.646;2023-04-16T03:11:21;1.33;;;0.50;;
49139;SDS011;34959;49.310;8.646;2023-04-16T03:13:46;1.05;;;0.50;;
49139;SDS011;34959;49.310;8.646;2023-04-16T03:16:11;0.82;;;0.50;;
49139;SDS011;34959;49.310;8.646;2023-04-16T03:18:37;1.15;;;0.50;;
49139;SDS011;34959;49.310;8.646;2023-04-16T03:21:02;1.20;;;0.70;;
49139;SDS011;34959;49.310;8.646;2023-04-16T03:23:28;2.33;;;0.50;;
49139;SDS011;34959;49.310;8.646;2023-04-16T03:25:53;0.63;;;0.50;;
49139;SDS011;34959;49.310;8.646;2023-04-16T03:28:19;0.70;;;0.40;;
49139;SDS011;34959;49.310;8.646;2023-04-16T03:30:50;0.63;;;0.40;;
49139;SDS011;34959;49.310;8.646;2023-04-16T03:33:17;1.38;;;0.50;;
49139;SDS011;34959;49.310;8.646;2023-04-16T03:35:42;0.55;;;0.40;;
49139;SDS011;34959;49.310;8.646;2023-04-16T03:38:08;0.77;;;0.50;;
49139;SDS011;34959;49.310;8.646;2023-04-16T03:40:33;1.58;;;0.50;;
49139;SDS011;34959;49.310;8.646;2023-04-16T03:42:58;1.33;;;0.45;;
49139;SDS011;34959;49.310;8.646;2023-04-16T03:45:24;1.05;;;0.50;;
49139;SDS011;34959;49.310;8.646;2023-04-16T03:47:49;1.17;;;0.45;;
49139;SDS011;34959;49.310;8.646;2023-04-16T03:50:19;1.40;;;0.47;;
49139;SDS011;34959;49.310;8.646;2023-04-16T03:52:44;1.00;;;0.50;;
49139;SDS011;34959;49.310;8.646;2023-04-16T03:55:11;0.60;;;0.40;;
49139;SDS011;34959;49.310;8.646;2023-04-16T03:57:37;1.45;;;0.60;;
49139;SDS011;34959;49.310;8.646;2023-04-16T04:00:03;1.23;;;0.60;;
49139;SDS011;34959;49.310;8.646;2023-04-16T04:02:29;1.92;;;0.50;;
49139;SDS011;34959;49.310;8.646;2023-04-16T04:04:54;0.80;;;0.50;;
49139;SDS011;34959;49.310;8.646;2023-04-16T04:07:20;2.00;;;0.50;;
49139;SDS011;34959;49.310;8.646;2023-04-16T04:09:45;0.60;;;0.43;;
49139;SDS011;34959;49.310;8.646;2023-04-16T04:12:10;1.10;;;0.40;;
49139;SDS011;34959;49.310;8.646;2023-04-16T04:14:36;2.25;;;0.50;;
49139;SDS011;34959;49.310;8.646;2023-04-16T04:17:04;1.25;;;0.50;;
49139;SDS011;34959;49.310;8.646;2023-04-16T04:19:30;0.90;;;0.60;;
49139;SDS011;34959;49.310;8.646;2023-04-16T04:21:55;0.80;;;0.40;;
49139;SDS011;34959;49.310;8.646;2023-04-16T04:24:20;0.60;;;0.40;;
49139;SDS011;34959;49.310;8.646;2023-04-16T04:26:46;1.15;;;0.68;;
49139;SDS011;34959;49.310;8.646;2023-04-16T04:29:12;1.38;;;0.60;;
49139;SDS011;34959;49.310;8.646;2023-04-16T04:31:37;1.70;;;0.70;;
49139;SDS011;34959;49.310;8.646;2023-04-16T04:34:03;0.30;;;0.30;;
49139;SDS011;34959;49.310;8.646;2023-04-16T04:36:28;0.73;;;0.50;;
49139;SDS011;34959;49.310;8.646;2023-04-16T04:38:53;1.90;;;0.60;;
49139;SDS011;34959;49.310;8.646;2023-04-16T04:41:19;0.65;;;0.50;;
49139;SDS011;34959;49.310;8.646;2023-04-16T04:43:45;0.70;;;0.55;;
49139;SDS011;34959;49.310;8.646;2023-04-16T04:46:11;0.75;;;0.60;;
49139;SDS011;34959;49.310;8.646;2023-04-16T04:48:36;0.60;;;0.40;;
49139;SDS011;34959;49.310;8.646;2023-04-16T04:51:02;1.02;;;0.60;;
49139;SDS011;34959;49.310;8.646;2023-04-16T04:53:28;0.85;;;0.50;;
49139;SDS011;34959;49.310;8.646;2023-04-16T04:55:54;1.00;;;0.50;;
49139;SDS011;34959;49.310;8.646;2023-04-16T04:58:19;1.20;;;0.60;;
49139;SDS011;34959;49.310;8.646;2023-04-16T05:00:45;0.70;;;0.50;;
49139;SDS011;34959;49.310;8.646;2023-04-16T05:03:10;1.73;;;0.60;;
49139;SDS011;34959;49.310;8.646;2023-04-16T05:05:37;1.02;;;0.50;;
49139;SDS011;34959;49.310;8.646;2023-04-16T05:08:05;0.95;;;0.60;;
49139;SDS011;34959;49.310;8.646;2023-04-16T05:10:31;1.13;;;0.70;;
49139;SDS011;34959;49.310;8.646;2023-04-16T05:12:56;1.00;;;0.70;;
49139;SDS011;34959;49.310;8.646;2023-04-16T05:15:21;1.35;;;0.55;;
49139;SDS011;34959;49.310;8.646;2023-04-16T05:17:47;1.70;;;0.50;;
49139;SDS011;34959;49.310;8.646;2023-04-16T05:20:12;1.58;;;0.70;;
49139;SDS011;34959;49.310;8.646;2023-04-16T05:22:38;1.45;;;0.80;;
49139;SDS011;34959;49.310;8.646;2023-04-16T05:25:03;1.73;;;0.60;;
49139;SDS011;34959;49.310;8.646;2023-04-16T05:27:29;1.58;;;0.50;;
49139;SDS011;34959;49.310;8.646;2023-04-16T05:29:54;1.58;;;0.70;;
49139;SDS011;34959;49.310;8.646;2023-04-16T05:32:20;1.67;;;0.60;;
49139;SDS011;34959;49.310;8.646;2023-04-16T05:34:45;1.50;;;0.70;;
49139;SDS011;34959;49.310;8.646;2023-04-16T05:37:10;0.77;;;0.63;;
49139;SDS011;34959;49.310;8.646;2023-04-16T05:39:36;0.70;;;0.60;;
49139;SDS011;34959;49.310;8.646;2023-04-16T05:42:01;0.50;;;0.50;;
49139;SDS011;34959;49.310;8.646;2023-04-16T05:44:27;0.80;;;0.60;;
49139;SDS011;34959;49.310;8.646;2023-04-16T05:46:52;0.80;;;0.60;;
49139;SDS011;34959;49.310;8.646;2023-04-16T05:49:18;1.02;;;0.60;;
49139;SDS011;34959;49.310;8.646;2023-04-16T05:51:44;0.60;;;0.50;;
49139;SDS011;34959;49.310;8.646;2023-04-16T05:54:09;0.93;;;0.50;;
49139;SDS011;34959;49.310;8.646;2023-04-16T05:56:35;0.85;;;0.52;;
49139;SDS011;34959;49.310;8.646;2023-04-16T05:59:00;0.68;;;0.60;;
49139;SDS011;34959;49.310;8.646;2023-04-16T06:01:25;1.17;;;0.60;;
49139;SDS011;34959;49.310;8.646;2023-04-16T06:03:51;3.28;;;0.80;;
49139;SDS011;34959;49.310;8.646;2023-04-16T06:06:16;2.75;;;0.50;;
49139;SDS011;34959;49.310;8.646;2023-04-16T06:08:41;2.05;;;0.70;;
49139;SDS011;34959;49.310;8.646;2023-04-16T06:11:07;2.97;;;0.90;;
49139;SDS011;34959;49.310;8.646;2023-04-16T06:13:32;0.80;;;0.60;;
49139;SDS011;34959;49.310;8.646;2023-04-16T06:15:58;2.37;;;0.83;;
49139;SDS011;34959;49.310;8.646;2023-04-16T06:18:23;2.08;;;0.80;;
49139;SDS011;34959;49.310;8.646;2023-04-16T06:20:48;5.50;;;1.40;;
49139;SDS011;34959;49.310;8.646;2023-04-16T06:23:14;6.07;;;1.00;;
49139;SDS011;34959;49.310;8.646;2023-04-16T06:25:40;5.30;;;0.65;;
49139;SDS011;34959;49.310;8.646;2023-04-16T06:28:05;2.58;;;0.70;;
49139;SDS011;34959;49.310;8.646;2023-04-16T06:30:30;1.88;;;0.85;;
49139;SDS011;34959;49.310;8.646;2023-04-16T06:32:56;4.20;;;0.85;;
49139;SDS011;34959;49.310;8.646;2023-04-16T06:35:21;2.70;;;0.88;;
49139;SDS011;34959;49.310;8.646;2023-04-16T06:37:47;2.28;;;0.60;;
49139;SDS011;34959;49.310;8.646;2023-04-16T06:40:12;1.13;;;0.65;;
49139;SDS011;34959;49.310;8.646;2023-04-16T06:42:38;0.63;;;0.50;;
49139;SDS011;34959;49.310;8.646;2023-04-16T06:45:03;1.13;;;0.80;;
49139;SDS011;34959;49.310;8.646;2023-04-16T06:47:29;1.30;;;0.65;;
49139;SDS011;34959;49.310;8.646;2023-04-16T06:49:54;1.30;;;0.65;;
49139;SDS011;34959;49.310;8.646;2023-04-16T06:52:20;1.63;;;0.65;;
49139;SDS011;34959;49.310;8.646;2023-04-16T06:54:46;1.15;;;0.70;;
49139;SDS011;34959;49.310;8.646;2023-04-16T06:57:12;0.88;;;0.70;;
49139;SDS011;34959;49.310;8.646;2023-04-16T06:59:37;1.58;;;0.88;;
49139;SDS011;34959;49.310;8.646;2023-04-16T07:02:03;1.42;;;0.70;;
49139;SDS011;34959;49.310;8.646;2023-04-16T07:04:28;3.15;;;0.80;;
49139;SDS011;34959;49.310;8.646;2023-04-16T07:06:53;2.40;;;1.00;;
49139;SDS011;34959;49.310;8.646;2023-04-16T07:09:19;2.55;;;1.00;;
49139;SDS011;34959;49.310;8.646;2023-04-16T07:11:44;1.38;;;0.80;;
49139;SDS011;34959;49.310;8.646;2023-04-16T07:14:10;1.73;;;0.60;;
49139;SDS011;34959;49.310;8.646;2023-04-16T07:16:35;1.73;;;0.70;;
49139;SDS011;34959;49.310;8.646;2023-04-16T07:19:01;2.00;;;0.80;;
49139;SDS011;34959;49.310;8.646;2023-04-16T07:21:27;1.67;;;0.80;;
49139;SDS011;34959;49.310;8.646;2023-04-16T07:23:52;3.42;;;0.90;;
49139;SDS011;34959;49.310;8.646;2023-04-16T07:26:18;1.10;;;0.80;;
49139;SDS011;34959;49.310;8.646;2023-04-16T07:28:43;1.10;;;0.85;;
49139;SDS011;34959;49.310;8.646;2023-04-16T07:31:08;1.52;;;0.95;;
49139;SDS011;34959;49.310;8.646;2023-04-16T07:33:34;2.10;;;0.80;;
49139;SDS011;34959;49.310;8.646;2023-04-16T07:35:59;2.92;;;0.80;;
49139;SDS011;34959;49.310;8.646;2023-04-16T07:38:25;1.85;;;0.98;;
49139;SDS011;34959;49.310;8.646;2023-04-16T07:40:50;2.50;;;0.85;;
49139;SDS011;34959;49.310;8.646;2023-04-16T07:43:16;1.38;;;1.08;;
49139;SDS011;34959;49.310;8.646;2023-04-16T07:45:41;1.60;;;0.95;;
49139;SDS011;34959;49.310;8.646;2023-04-16T07:48:06;1.58;;;0.77;;
49139;SDS011;34959;49.310;8.646;2023-04-16T07:50:32;1.40;;;0.80;;
49139;SDS011;34959;49.310;8.646;2023-04-16T07:52:57;14.00;;;1.20;;
49139;SDS011;34959;49.310;8.646;2023-04-16T07:55:23;3.70;;;1.00;;
49139;SDS011;34959;49.310;8.646;2023-04-16T07:57:48;2.28;;;1.00;;
49139;SDS011;34959;49.310;8.646;2023-04-16T08:00:13;1.27;;;1.00;;
49139;SDS011;34959;49.310;8.646;2023-04-16T08:02:39;3.40;;;1.08;;
49139;SDS011;34959;49.310;8.646;2023-04-16T08:05:05;1.75;;;1.20;;
49139;SDS011;34959;49.310;8.646;2023-04-16T08:07:31;4.43;;;0.80;;
49139;SDS011;34959;49.310;8.646;2023-04-16T08:09:56;1.45;;;0.85;;
49139;SDS011;34959;49.310;8.646;2023-04-16T08:12:22;2.95;;;1.20;;
49139;SDS011;34959;49.310;8.646;2023-04-16T08:14:47;1.40;;;1.10;;
49139;SDS011;34959;49.310;8.646;2023-04-16T08:17:13;1.40;;;1.05;;
49139;SDS011;34959;49.310;8.646;2023-04-16T08:19:39;2.78;;;1.00;;
49139;SDS011;34959;49.310;8.646;2023-04-16T08:22:05;1.77;;;1.00;;
49139;SDS011;34959;49.310;8.646;2023-04-16T08:24:30;3.17;;;1.10;;
49139;SDS011;34959;49.310;8.646;2023-04-16T08:26:55;2.95;;;1.17;;
49139;SDS011;34959;49.310;8.646;2023-04-16T08:29:21;1.20;;;0.88;;
49139;SDS011;34959;49.310;8.646;2023-04-16T08:31:49;2.75;;;1.20;;
49139;SDS011;34959;49.310;8.646;2023-04-16T08:34:14;2.58;;;1.20;;
49139;SDS011;34959;49.310;8.646;2023-04-16T08:36:40;2.00;;;1.13;;
49139;SDS011;34959;49.310;8.646;2023-04-16T08:39:05;1.80;;;1.30;;
49139;SDS011;34959;49.310;8.646;2023-04-16T08:41:31;1.88;;;1.27;;
49139;SDS011;34959;49.310;8.646;2023-04-16T08:44:05;1.60;;;0.98;;
49139;SDS011;34959;49.310;8.646;2023-04-16T08:46:32;1.48;;;1.27;;
49139;SDS011;34959;49.310;8.646;2023-04-16T08:49:01;2.35;;;1.20;;
49139;SDS011;34959;49.310;8.646;2023-04-16T08:51:31;2.13;;;1.23;;
49139;SDS011;34959;49.310;8.646;2023-04-16T08:54:03;2.22;;;1.20;;
49139;SDS011;34959;49.310;8.646;2023-04-16T08:56:30;2.72;;;1.42;;
49139;SDS011;34959;49.310;8.646;2023-04-16T08:59:00;3.10;;;1.38;;
49139;SDS011;34959;49.310;8.646;2023-04-16T09:01:29;3.28;;;1.35;;
49139;SDS011;34959;49.310;8.646;2023-04-16T09:03:56;2.22;;;1.45;;
49139;SDS011;34959;49.310;8.646;2023-04-16T09:06:22;1.55;;;1.20;;
49139;SDS011;34959;49.310;8.646;2023-04-16T09:08:48;1.85;;;1.33;;
49139;SDS011;34959;49.310;8.646;2023-04-16T09:11:16;1.60;;;1.50;;
49139;SDS011;34959;49.310;8.646;2023-04-16T09:13:42;2.65;;;1.10;;
49139;SDS011;34959;49.310;8.646;2023-04-16T09:16:07;3.90;;;1.48;;
49139;SDS011;34959;49.310;8.646;2023-04-16T09:18:33;2.05;;;1.40;;
49139;SDS011;34959;49.310;8.646;2023-04-16T09:20:59;2.65;;;1.63;;
49139;SDS011;34959;49.310;8.646;2023-04-16T09:23:25;6.68;;;5.65;;
49139;SDS011;34959;49.310;8.646;2023-04-16T09:25:50;14.73;;;6.65;;
49139;SDS011;34959;49.310;8.646;2023-04-16T09:28:49;8.43;;;6.50;;
49139;SDS011;34959;49.310;8.646;2023-04-16T09:31:13;7.30;;;5.72;;
49139;SDS011;34959;49.310;8.646;2023-04-16T09:33:39;6.88;;;5.50;;
49139;SDS011;34959;49.310;8.646;2023-04-16T09:36:06;7.50;;;4.90;;
49139;SDS011;34959;49.310;8.646;2023-04-16T09:38:48;5.00;;;3.95;;
49139;SDS011;34959;49.310;8.646;2023-04-16T09:43:41;4.78;;;3.60;;
49139;SDS011;34959;49.310;8.646;2023-04-16T09:46:13;5.00;;;3.75;;
49139;SDS011;34959;49.310;8.646;2023-04-16T09:48:38;5.15;;;3.50;;
49139;SDS011;34959;49.310;8.646;2023-04-16T09:51:04;5.18;;;3.53;;
49139;SDS011;34959;49.310;8.646;2023-04-16T09:53:30;4.28;;;3.17;;
49139;SDS011;34959;49.310;8.646;2023-04-16T09:56:00;4.88;;;3.17;;
49139;SDS011;34959;49.310;8.646;2023-04-16T09:58:30;4.20;;;3.30;;
49139;SDS011;34959;49.310;8.646;2023-04-16T10:03:34;4.35;;;3.38;;
49139;SDS011;34959;49.310;8.646;2023-04-16T10:06:07;4.38;;;3.10;;
49139;SDS011;34959;49.310;8.646;2023-04-16T10:08:46;3.92;;;3.10;;
49139;SDS011;34959;49.310;8.646;2023-04-16T10:11:12;3.50;;;2.88;;
49139;SDS011;34959;49.310;8.646;2023-04-16T10:13:38;4.07;;;2.95;;
49139;SDS011;34959;49.310;8.646;2023-04-16T10:16:04;3.92;;;3.20;;
49139;SDS011;34959;49.310;8.646;2023-04-16T10:18:30;4.95;;;2.70;;
49139;SDS011;34959;49.310;8.646;2023-04-16T10:20:56;4.68;;;2.70;;
49139;SDS011;34959;49.310;8.646;2023-04-16T10:23:22;3.70;;;2.90;;
49139;SDS011;34959;49.310;8.646;2023-04-16T10:25:48;3.20;;;2.40;;
49139;SDS011;34959;49.310;8.646;2023-04-16T10:28:14;3.60;;;2.90;;
49139;SDS011;34959;49.310;8.646;2023-04-16T10:30:40;3.85;;;2.75;;
49139;SDS011;34959;49.310;8.646;2023-04-16T10:33:12;3.17;;;2.40;;
49139;SDS011;34959;49.310;8.646;2023-04-16T10:35:38;2.95;;;2.58;;
49139;SDS011;34959;49.310;8.646;2023-04-16T10:38:24;3.15;;;2.58;;
49139;SDS011;34959;49.310;8.646;2023-04-16T10:40:56;3.33;;;2.50;;
49139;SDS011;34959;49.310;8.646;2023-04-16T10:43:23;2.85;;;2.50;;
49139;SDS011;34959;49.310;8.646;2023-04-16T10:45:49;4.00;;;2.58;;
49139;SDS011;34959;49.310;8.646;2023-04-16T10:48:17;3.25;;;2.58;;
49139;SDS011;34959;49.310;8.646;2023-04-16T10:50:52;2.88;;;2.53;;
49139;SDS011;34959;49.310;8.646;2023-04-16T10:53:23;3.78;;;2.58;;
49139;SDS011;34959;49.310;8.646;2023-04-16T10:58:25;3.25;;;2.42;;
49139;SDS011;34959;49.310;8.646;2023-04-16T11:00:54;4.10;;;2.75;;
49139;SDS011;34959;49.310;8.646;2023-04-16T11:03:20;3.78;;;2.65;;
49139;SDS011;34959;49.310;8.646;2023-04-16T11:05:45;4.28;;;2.63;;
49139;SDS011;34959;49.310;8.646;2023-04-16T11:08:14;4.22;;;2.55;;
49139;SDS011;34959;49.310;8.646;2023-04-16T11:10:40;2.65;;;2.25;;
49139;SDS011;34959;49.310;8.646;2023-04-16T11:13:08;3.38;;;2.78;;
49139;SDS011;34959;49.310;8.646;2023-04-16T11:15:36;4.55;;;3.05;;
49139;SDS011;34959;49.310;8.646;2023-04-16T11:18:05;3.33;;;2.72;;
49139;SDS011;34959;49.310;8.646;2023-04-16T11:20:31;3.20;;;2.55;;
49139;SDS011;34959;49.310;8.646;2023-04-16T11:22:56;5.38;;;2.63;;
49139;SDS011;34959;49.310;8.646;2023-04-16T11:25:23;4.18;;;2.45;;
49139;SDS011;34959;49.310;8.646;2023-04-16T11:27:49;2.63;;;2.30;;
49139;SDS011;34959;49.310;8.646;2023-04-16T11:30:16;4.57;;;2.67;;
49139;SDS011;34959;49.310;8.646;2023-04-16T11:32:42;2.97;;;2.45;;
49139;SDS011;34959;49.310;8.646;2023-04-16T11:35:17;2.92;;;2.45;;
49139;SDS011;34959;49.310;8.646;2023-04-16T11:37:43;5.07;;;2.70;;
49139;SDS011;34959;49.310;8.646;2023-04-16T11:40:09;4.10;;;2.42;;
49139;SDS011;34959;49.310;8.646;2023-04-16T11:42:36;3.83;;;2.58;;
49139;SDS011;34959;49.310;8.646;2023-04-16T11:45:05;2.80;;;2.33;;
49139;SDS011;34959;49.310;8.646;2023-04-16T11:47:41;2.88;;;2.28;;
49139;SDS011;34959;49.310;8.646;2023-04-16T11:50:21;3.22;;;2.25;;
49139;SDS011;34959;49.310;8.646;2023-04-16T11:52:51;4.78;;;2.38;;
49139;SDS011;34959;49.310;8.646;2023-04-16T11:55:17;4.45;;;2.58;;
49139;SDS011;34959;49.310;8.646;2023-04-16T11:57:43;3.00;;;2.40;;
49139;SDS011;34959;49.310;8.646;2023-04-16T12:00:10;3.58;;;2.58;;
49139;SDS011;34959;49.310;8.646;2023-04-16T12:02:40;2.72;;;2.15;;
49139;SDS011;34959;49.310;8.646;2023-04-16T12:05:30;2.83;;;2.20;;
49139;SDS011;34959;49.310;8.646;2023-04-16T12:07:57;4.20;;;2.45;;
49139;SDS011;34959;49.310;8.646;2023-04-16T12:10:23;5.43;;;2.15;;
49139;SDS011;34959;49.310;8.646;2023-04-16T12:12:48;4.47;;;2.20;;
49139;SDS011;34959;49.310;8.646;2023-04-16T12:15:14;3.42;;;2.20;;
49139;SDS011;34959;49.310;8.646;2023-04-16T12:17:39;3.97;;;2.33;;
49139;SDS011;34959;49.310;8.646;2023-04-16T12:20:11;3.22;;;2.13;;
49139;SDS011;34959;49.310;8.646;2023-04-16T12:22:40;3.28;;;2.40;;
49139;SDS011;34959;49.310;8.646;2023-04-16T12:25:15;4.32;;;2.15;;
49139;SDS011;34959;49.310;8.646;2023-04-16T12:27:51;3.92;;;2.35;;
49139;SDS011;34959;49.310;8.646;2023-04-16T12:30:20;4.13;;;2.35;;
49139;SDS011;34959;49.310;8.646;2023-04-16T12:32:47;3.88;;;2.40;;
49139;SDS011;34959;49.310;8.646;2023-04-16T12:35:27;3.65;;;2.22;;
49139;SDS011;34959;49.310;8.646;2023-04-16T12:37:56;3.47;;;2.30;;
49139;SDS011;34959;49.310;8.646;2023-04-16T12:40:22;2.92;;;2.38;;
49139;SDS011;34959;49.310;8.646;2023-04-16T12:42:47;4.07;;;2.17;;
49139;SDS011;34959;49.310;8.646;2023-04-16T12:45:12;4.22;;;2.38;;
49139;SDS011;34959;49.310;8.646;2023-04-16T12:47:38;3.85;;;2.40;;
49139;SDS011;34959;49.310;8.646;2023-04-16T12:50:03;4.72;;;2.50;;
49139;SDS011;34959;49.310;8.646;2023-04-16T12:52:29;3.40;;;2.20;;
49139;SDS011;34959;49.310;8.646;2023-04-16T12:54:55;5.57;;;2.53;;
49139;SDS011;34959;49.310;8.646;2023-04-16T12:57:20;2.33;;;1.92;;
49139;SDS011;34959;49.310;8.646;2023-04-16T12:59:52;4.30;;;2.38;;
49139;SDS011;34959;49.310;8.646;2023-04-16T13:02:19;4.50;;;2.00;;
49139;SDS011;34959;49.310;8.646;2023-04-16T13:04:44;5.10;;;2.20;;
49139;SDS011;34959;49.310;8.646;2023-04-16T13:07:10;3.25;;;2.47;;
49139;SDS011;34959;49.310;8.646;2023-04-16T13:09:35;4.60;;;2.45;;
49139;SDS011;34959;49.310;8.646;2023-04-16T13:12:00;2.88;;;2.00;;
49139;SDS011;34959;49.310;8.646;2023-04-16T13:14:26;3.00;;;2.22;;
49139;SDS011;34959;49.310;8.646;2023-04-16T13:16:51;3.47;;;2.03;;
49139;SDS011;34959;49.310;8.646;2023-04-16T13:19:17;2.58;;;1.88;;
49139;SDS011;34959;49.310;8.646;2023-04-16T13:21:43;2.85;;;2.40;;
49139;SDS011;34959;49.310;8.646;2023-04-16T13:24:08;2.42;;;2.08;;
49139;SDS011;34959;49.310;8.646;2023-04-16T13:26:34;3.55;;;2.15;;
49139;SDS011;34959;49.310;8.646;2023-04-16T13:28:59;4.07;;;2.20;;
49139;SDS011;34959;49.310;8.646;2023-04-16T13:31:25;2.95;;;2.20;;
49139;SDS011;34959;49.310;8.646;2023-04-16T13:33:50;3.28;;;1.98;;
49139;SDS011;34959;49.310;8.646;2023-04-16T13:36:16;2.85;;;2.10;;
49139;SDS011;34959;49.310;8.646;2023-04-16T13:38:41;4.75;;;2.85;;
49139;SDS011;34959;49.310;8.646;2023-04-16T13:41:07;3.00;;;2.40;;
49139;SDS011;34959;49.310;8.646;2023-04-16T13:43:32;5.13;;;2.30;;
49139;SDS011;34959;49.310;8.646;2023-04-16T13:45:58;3.38;;;2.30;;
49139;SDS011;34959;49.310;8.646;2023-04-16T13:48:24;5.28;;;2.15;;
49139;SDS011;34959;49.310;8.646;2023-04-16T13:50:50;3.65;;;2.22;;
49139;SDS011;34959;49.310;8.646;2023-04-16T13:53:16;2.80;;;2.17;;
49139;SDS011;34959;49.310;8.646;2023-04-16T13:55:41;4.22;;;2.35;;
49139;SDS011;34959;49.310;8.646;2023-04-16T13:58:07;3.63;;;2.10;;
49139;SDS011;34959;49.310;8.646;2023-04-16T14:00:33;4.47;;;2.22;;
49139;SDS011;34959;49.310;8.646;2023-04-16T14:02:58;2.97;;;2.20;;
49139;SDS011;34959;49.310;8.646;2023-04-16T14:05:24;3.25;;;2.30;;
49139;SDS011;34959;49.310;8.646;2023-04-16T14:07:49;4.57;;;2.20;;
49139;SDS011;34959;49.310;8.646;2023-04-16T14:10:15;2.78;;;1.98;;
49139;SDS011;34959;49.310;8.646;2023-04-16T14:12:42;4.07;;;2.20;;
49139;SDS011;34959;49.310;8.646;2023-04-16T14:15:08;2.75;;;1.95;;
49139;SDS011;34959;49.310;8.646;2023-04-16T14:17:34;2.78;;;1.88;;
49139;SDS011;34959;49.310;8.646;2023-04-16T14:20:01;3.03;;;2.17;;
49139;SDS011;34959;49.310;8.646;2023-04-16T14:22:28;3.33;;;2.08;;
49139;SDS011;34959;49.310;8.646;2023-04-16T14:24:54;3.05;;;2.30;;
49139;SDS011;34959;49.310;8.646;2023-04-16T14:27:19;4.05;;;2.10;;
49139;SDS011;34959;49.310;8.646;2023-04-16T14:29:45;3.25;;;2.30;;
49139;SDS011;34959;49.310;8.646;2023-04-16T14:32:11;2.63;;;2.00;;
49139;SDS011;34959;49.310;8.646;2023-04-16T14:34:36;2.92;;;1.90;;
49139;SDS011;34959;49.310;8.646;2023-04-16T14:37:02;3.22;;;2.05;;
49139;SDS011;34959;49.310;8.646;2023-04-16T14:39:28;2.95;;;2.00;;
49139;SDS011;34959;49.310;8.646;2023-04-16T14:41:53;2.60;;;1.98;;
49139;SDS011;34959;49.310;8.646;2023-04-16T14:44:19;3.03;;;2.28;;
49139;SDS011;34959;49.310;8.646;2023-04-16T14:46:45;3.67;;;1.98;;
49139;SDS011;34959;49.310;8.646;2023-04-16T14:49:11;3.92;;;2.00;;
49139;SDS011;34959;49.310;8.646;2023-04-16T14:51:36;2.78;;;2.17;;